Terminal Aerodrome Forecast
Issued by NWS

Home | Current Version | Previous Version | Text Only | Print | Product List | Glossary On
Versions: 1 2 3 4 5 6 7 8 9 10 11 12 13 14 15 16 17 18 19 20
000
FTUS43 KGRB 240525
TAFRHI
TAF
KRHI 240525Z 2406/2506 32009G17KT 5SM -RA BR BKN008 OVC015
     FM240800 32010G18KT 4SM -RA BR OVC008
     FM241200 32016G25KT 5SM -RA BR OVC010
     FM241500 32018G30KT 6SM -RA BR OVC015
     FM241800 31017G25KT P6SM -SHRA BKN030
     FM242300 31010G18KT P6SM SCT035 BKN070=

USA.gov is the U.S. government's official web portal to all federal, state and local government web resources and services.